Time;durP1;ratioP1;P1;durP2;ratioP2;P2;SDS_P1;SDS_P2;PMS_P1;PMS_P2;Temp;Humidity;BMP_temperature;BMP_pressure;BME280_temperature;BME280_humidity;BME280_pressure;Samples;Min_cycle;Max_cycle;Signal;HPM_P1;HPM_P2
2023/10/03 00:01:06;;;;;;;20.02;14.10;;;11.90;99.90;;;;;;6192230;23;20041;-76
2023/10/03 00:03:33;;;;;;;21.42;14.30;;;11.80;99.90;;;;;;6181256;23;20079;-74
2023/10/03 00:06:01;;;;;;;21.63;14.55;;;11.70;99.90;;;;;;6188458;23;20056;-74
2023/10/03 00:08:30;;;;;;;22.38;14.02;;;11.70;99.90;;;;;;6191820;23;20044;-74
2023/10/03 00:10:57;;;;;;;20.27;13.27;;;11.80;99.90;;;;;;6190597;23;20029;-74
2023/10/03 00:13:25;;;;;;;22.40;13.30;;;11.70;99.90;;;;;;6191372;23;20020;-74
2023/10/03 00:15:53;;;;;;;17.73;12.35;;;11.70;99.90;;;;;;6192688;23;20337;-76
2023/10/03 00:18:21;;;;;;;23.20;13.88;;;11.70;99.90;;;;;;6182522;23;20028;-74
2023/10/03 00:20:48;;;;;;;22.63;13.45;;;11.70;99.90;;;;;;6186537;23;20055;-75
2023/10/03 00:23:16;;;;;;;18.70;12.60;;;11.60;99.90;;;;;;6187332;23;20028;-73
2023/10/03 00:25:44;;;;;;;21.00;14.18;;;11.60;99.90;;;;;;6190056;23;20041;-73
2023/10/03 00:28:12;;;;;;;20.60;13.27;;;11.50;99.90;;;;;;6192209;23;20084;-74
2023/10/03 00:30:39;;;;;;;22.95;14.18;;;11.40;99.90;;;;;;6156939;23;20029;-74
2023/10/03 00:33:10;;;;;;;24.90;14.45;;;11.40;99.90;;;;;;6184637;23;20072;-74
2023/10/03 00:35:40;;;;;;;22.48;14.20;;;11.30;99.90;;;;;;6181287;23;20048;-75
2023/10/03 00:38:10;;;;;;;21.67;13.80;;;11.30;99.90;;;;;;6191940;23;20017;-75
2023/10/03 00:40:39;;;;;;;23.60;14.15;;;11.40;99.90;;;;;;6235862;23;20072;-75
2023/10/03 00:43:11;;;;;;;21.13;14.02;;;11.50;99.90;;;;;;6158374;23;20032;-77
2023/10/03 00:45:39;;;;;;;19.40;13.48;;;11.60;99.90;;;;;;6168096;23;20079;-74
2023/10/03 00:48:08;;;;;;;22.33;13.68;;;11.50;99.90;;;;;;6158909;23;20029;-75
2023/10/03 00:50:37;;;;;;;22.45;16.35;;;11.40;99.90;;;;;;6189398;23;20454;-75
2023/10/03 00:53:08;;;;;;;21.77;14.23;;;11.50;99.90;;;;;;6155967;23;20393;-74
2023/10/03 00:55:37;;;;;;;22.42;16.00;;;11.40;99.90;;;;;;6156555;23;24761;-74
2023/10/03 00:58:17;;;;;;;23.63;14.68;;;11.30;99.90;;;;;;6192923;23;20040;-74
2023/10/03 01:00:48;;;;;;;19.88;13.82;;;11.20;99.90;;;;;;6211899;23;20029;-74
2023/10/03 01:03:27;;;;;;;21.27;13.70;;;11.30;99.90;;;;;;6161064;23;20048;-75
2023/10/03 01:05:54;;;;;;;23.73;14.02;;;11.30;99.90;;;;;;6183976;23;20040;-73
2023/10/03 01:08:23;;;;;;;21.58;14.23;;;11.30;99.90;;;;;;6187180;23;20028;-74
2023/10/03 01:10:50;;;;;;;19.45;12.50;;;11.30;99.90;;;;;;6156552;23;20080;-76
2023/10/03 01:13:20;;;;;;;22.52;13.23;;;11.20;99.90;;;;;;6208173;23;20044;-74
2023/10/03 01:15:50;;;;;;;20.50;13.15;;;11.20;99.90;;;;;;6214441;23;20013;-74
2023/10/03 01:18:20;;;;;;;44.50;27.75;;;11.20;99.90;;;;;;6205103;23;20031;-75
2023/10/03 01:20:52;;;;;;;21.20;13.90;;;11.20;99.90;;;;;;6203363;23;20040;-74
2023/10/03 01:23:21;;;;;;;20.27;13.15;;;11.20;99.90;;;;;;6208686;23;20029;-73
2023/10/03 01:25:49;;;;;;;21.98;13.65;;;11.10;99.90;;;;;;6183861;23;20034;-73
2023/10/03 01:28:16;;;;;;;18.83;12.27;;;11.20;99.90;;;;;;6231551;23;20025;-75
2023/10/03 01:30:44;;;;;;;20.65;13.85;;;11.20;99.90;;;;;;6205984;23;20059;-76
2023/10/03 01:33:12;;;;;;;20.70;13.35;;;11.20;99.90;;;;;;6209349;23;20029;-74
2023/10/03 01:35:40;;;;;;;18.67;13.07;;;11.20;99.90;;;;;;6160691;23;20480;-74
2023/10/03 01:38:08;;;;;;;23.73;13.75;;;11.10;99.90;;;;;;6187752;23;20032;-75
2023/10/03 01:40:37;;;;;;;24.13;13.95;;;11.10;99.90;;;;;;6212309;23;20028;-74
2023/10/03 01:43:07;;;;;;;21.98;12.68;;;11.10;99.90;;;;;;6214319;23;20036;-74
2023/10/03 01:45:34;;;;;;;18.65;12.80;;;11.00;99.90;;;;;;6196352;23;20051;-73
2023/10/03 01:48:05;;;;;;;20.38;12.20;;;11.00;99.90;;;;;;6163324;23;20032;-74
2023/10/03 01:50:34;;;;;;;34.70;14.63;;;11.00;99.90;;;;;;6194200;23;20025;-74
2023/10/03 01:53:03;;;;;;;20.98;12.93;;;11.00;99.90;;;;;;6157775;23;20103;-72
2023/10/03 01:55:31;;;;;;;20.60;13.32;;;11.00;99.90;;;;;;6191461;23;20052;-73
2023/10/03 01:58:05;;;;;;;20.20;13.63;;;11.10;99.90;;;;;;6182744;23;20020;-74
2023/10/03 02:00:34;;;;;;;22.35;14.52;;;11.00;99.90;;;;;;6154852;23;20033;-73
2023/10/03 02:03:05;;;;;;;21.73;13.90;;;10.90;99.90;;;;;;6185561;23;20041;-75
2023/10/03 02:05:34;;;;;;;20.80;14.40;;;10.80;99.90;;;;;;6156680;23;20020;-74
2023/10/03 02:08:07;;;;;;;21.98;14.05;;;10.80;99.90;;;;;;6189755;23;20025;-75
2023/10/03 02:10:36;;;;;;;21.50;14.43;;;10.80;99.90;;;;;;6155716;23;20029;-76
2023/10/03 02:13:09;;;;;;;17.77;11.98;;;10.80;99.90;;;;;;6156976;23;20040;-76
2023/10/03 02:15:39;;;;;;;18.20;13.20;;;10.70;99.90;;;;;;6184642;23;20021;-74
2023/10/03 02:18:08;;;;;;;19.98;12.82;;;10.70;99.90;;;;;;6156772;23;20035;-73
2023/10/03 02:20:47;;;;;;;21.25;13.95;;;10.80;99.90;;;;;;6160568;23;20469;-75
2023/10/03 02:23:19;;;;;;;21.60;13.18;;;10.80;99.90;;;;;;6162562;23;20056;-76
2023/10/03 02:25:47;;;;;;;19.85;12.40;;;10.80;99.90;;;;;;6162969;23;20018;-74
2023/10/03 02:28:17;;;;;;;23.42;14.18;;;10.70;99.90;;;;;;6158635;23;20032;-75
2023/10/03 02:30:47;;;;;;;21.83;12.52;;;10.70;99.90;;;;;;6218576;23;20394;-75
2023/10/03 02:33:15;;;;;;;22.70;12.52;;;10.70;99.90;;;;;;6194782;23;20096;-74
2023/10/03 02:35:44;;;;;;;21.77;12.90;;;10.60;99.90;;;;;;6208004;23;20148;-76
2023/10/03 02:38:14;;;;;;;21.60;12.48;;;10.60;99.90;;;;;;6188596;23;20028;-75
2023/10/03 02:40:43;;;;;;;21.10;13.93;;;10.60;99.90;;;;;;6185262;23;20465;-75
2023/10/03 02:43:12;;;;;;;20.50;12.05;;;10.60;99.90;;;;;;6174551;23;20016;-77
2023/10/03 02:45:42;;;;;;;20.02;13.60;;;10.70;99.90;;;;;;6187379;23;20033;-75
2023/10/03 02:48:15;;;;;;;20.30;12.77;;;10.60;99.90;;;;;;6184443;23;20032;-75
2023/10/03 02:50:44;;;;;;;20.05;13.38;;;10.60;99.90;;;;;;6169720;23;20029;-73
2023/10/03 02:53:17;;;;;;;21.95;12.93;;;10.50;99.90;;;;;;6158870;23;20049;-75
2023/10/03 02:55:46;;;;;;;23.08;13.63;;;10.40;99.90;;;;;;6163115;23;20036;-73
2023/10/03 02:58:14;;;;;;;21.92;13.65;;;10.40;99.90;;;;;;6158777;23;20546;-73
2023/10/03 03:00:46;;;;;;;20.20;12.70;;;10.40;99.90;;;;;;6187359;23;20035;-74
2023/10/03 03:03:14;;;;;;;22.08;13.50;;;10.40;99.90;;;;;;6190208;23;20068;-75
2023/10/03 03:05:44;;;;;;;23.25;13.68;;;10.40;99.90;;;;;;6176340;23;20042;-74
2023/10/03 03:08:25;;;;;;;17.98;12.48;;;10.40;99.90;;;;;;6174418;23;20029;-75
2023/10/03 03:10:57;;;;;;;21.55;13.23;;;10.50;99.90;;;;;;6160252;23;20080;-74
2023/10/03 03:13:26;;;;;;;17.75;12.80;;;10.50;99.90;;;;;;6164545;23;20028;-74
2023/10/03 03:15:59;;;;;;;19.13;14.10;;;10.40;99.90;;;;;;6166330;23;20021;-75
2023/10/03 03:18:30;;;;;;;23.83;15.18;;;10.40;99.90;;;;;;6193122;23;20483;-75
2023/10/03 03:20:58;;;;;;;19.73;13.63;;;10.30;99.90;;;;;;6191509;23;20029;-75
2023/10/03 03:23:30;;;;;;;23.17;14.63;;;10.30;99.90;;;;;;6201684;23;20029;-74
2023/10/03 03:26:12;;;;;;;21.30;14.85;;;10.20;99.90;;;;;;6205941;23;20059;-73
2023/10/03 03:28:41;;;;;;;20.85;14.57;;;10.30;99.90;;;;;;6205890;23;20032;-73
2023/10/03 03:31:20;;;;;;;18.95;14.13;;;10.30;99.90;;;;;;6175125;23;20013;-76
2023/10/03 03:33:49;;;;;;;21.73;14.63;;;10.20;99.90;;;;;;6223867;23;20040;-74
2023/10/03 03:36:18;;;;;;;20.35;14.20;;;10.40;99.90;;;;;;6177428;23;20029;-76
2023/10/03 03:38:47;;;;;;;20.30;13.63;;;10.40;99.90;;;;;;6202771;23;20464;-75
2023/10/03 03:41:15;;;;;;;26.85;19.77;;;10.30;99.90;;;;;;6198834;23;20017;-73
2023/10/03 03:43:43;;;;;;;26.23;18.27;;;10.30;99.90;;;;;;6192218;23;20450;-74
2023/10/03 03:46:13;;;;;;;25.00;17.55;;;10.40;99.90;;;;;;6195714;23;20013;-75
2023/10/03 03:48:40;;;;;;;25.10;17.42;;;10.20;99.90;;;;;;6183079;23;20024;-74
2023/10/03 03:51:11;;;;;;;25.70;16.80;;;10.30;99.90;;;;;;6185421;23;20028;-73
2023/10/03 03:53:39;;;;;;;23.63;14.55;;;10.20;99.90;;;;;;6155641;23;20028;-74
2023/10/03 03:56:07;;;;;;;23.63;15.77;;;10.20;99.90;;;;;;6189440;23;20025;-74
2023/10/03 03:58:37;;;;;;;23.50;15.98;;;10.10;99.90;;;;;;6156602;23;20016;-74
2023/10/03 04:01:12;;;;;;;22.50;14.82;;;10.10;99.90;;;;;;6193937;23;20034;-74
2023/10/03 04:03:42;;;;;;;25.40;15.63;;;10.10;99.90;;;;;;6182134;23;20053;-75
2023/10/03 04:06:09;;;;;;;26.83;14.88;;;10.10;99.90;;;;;;6185802;23;20484;-73
2023/10/03 04:08:38;;;;;;;22.77;15.30;;;10.10;99.90;;;;;;6188320;23;20033;-76
2023/10/03 04:11:07;;;;;;;21.75;13.82;;;10.00;99.90;;;;;;6157814;23;20021;-74
2023/10/03 04:13:38;;;;;;;22.45;14.75;;;10.10;99.90;;;;;;6190598;23;20075;-74
2023/10/03 04:16:06;;;;;;;23.25;14.80;;;10.00;99.90;;;;;;6191813;23;20036;-73
2023/10/03 04:18:37;;;;;;;21.75;14.10;;;10.00;99.90;;;;;;6182327;23;20484;-72
2023/10/03 04:21:06;;;;;;;22.98;13.90;;;10.00;99.90;;;;;;6182441;23;20039;-74
2023/10/03 04:23:34;;;;;;;22.58;13.88;;;9.90;99.90;;;;;;6153197;23;20020;-74
2023/10/03 04:26:01;;;;;;;25.60;15.65;;;9.90;99.90;;;;;;6162987;23;20527;-75
2023/10/03 04:28:28;;;;;;;20.02;13.82;;;9.80;99.90;;;;;;6183407;23;20021;-74
2023/10/03 04:30:56;;;;;;;21.60;14.85;;;9.90;99.90;;;;;;6221594;23;20047;-75
2023/10/03 04:33:24;;;;;;;22.42;13.45;;;9.80;99.90;;;;;;6185342;23;20041;-75
2023/10/03 04:35:52;;;;;;;21.98;14.45;;;10.00;99.90;;;;;;6203150;23;20028;-74
2023/10/03 04:38:22;;;;;;;21.88;14.52;;;10.00;99.90;;;;;;6202761;23;20033;-74
2023/10/03 04:40:49;;;;;;;22.08;14.15;;;9.90;99.90;;;;;;6162499;23;20132;-73
2023/10/03 06:39:42;;;;;;;24.75;14.52;;;14.30;99.90;;;;;;6207060;22;20097;-79
2023/10/03 06:42:32;;;;;;;28.23;15.50;;;14.40;1.00;;;;;;6202624;23;20039;-84
2023/10/03 06:59:58;;;;;;;18.92;12.63;;;15.50;1.00;;;;;;6196667;23;20016;-83
2023/10/03 07:03:08;;;;;;;23.38;16.52;;;15.80;1.00;;;;;;6133483;23;20036;-82
2023/10/03 07:09:46;;;;;;;22.48;13.80;;;16.10;1.00;;;;;;6183255;23;20028;-85
2023/10/03 07:54:46;;;;;;;29.33;15.70;;;18.40;1.00;;;;;;5821476;24;20167;-84
2023/10/03 07:57:43;;;;;;;18.45;12.57;;;18.60;99.90;;;;;;5960009;24;20431;-85
2023/10/03 08:00:20;;;;;;;20.55;11.88;;;18.70;99.90;;;;;;5913891;24;20035;-85
2023/10/03 08:02:59;;;;;;;20.75;10.85;;;18.90;51.40;;;;;;5949431;24;20029;-86
2023/10/03 08:05:34;;;;;;;18.83;11.75;;;19.10;1.00;;;;;;5952131;24;20031;-83
2023/10/03 08:08:08;;;;;;;23.17;11.23;;;19.30;1.00;;;;;;5968062;23;20930;-84
2023/10/03 08:10:53;;;;;;;21.55;11.32;;;19.40;1.00;;;;;;5939080;24;20024;-85
2023/10/03 08:23:51;;;;;;;29.42;17.33;;;19.70;10.00;;;;;;5908189;24;20521;-83
2023/10/03 08:26:52;;;;;;;28.23;17.77;;;19.90;1.00;;;;;;5944275;24;20104;-84
2023/10/03 08:30:00;;;;;;;30.63;19.15;;;20.00;1.00;;;;;;5931966;24;20052;-84
2023/10/03 08:32:51;;;;;;;26.48;16.02;;;20.10;1.00;;;;;;5896753;24;20020;-84
2023/10/03 08:36:01;;;;;;;24.77;12.48;;;20.30;1.00;;;;;;5925309;24;20401;-85
2023/10/03 08:38:47;;;;;;;19.83;13.25;;;20.40;99.90;;;;;;5992697;23;20075;-85
2023/10/03 08:42:12;;;;;;;17.35;10.35;;;20.30;99.90;;;;;;6026138;23;20350;-87
2023/10/03 08:45:28;;;;;;;17.77;10.73;;;20.40;1.00;;;;;;6037148;23;20055;-86
2023/10/03 08:48:18;;;;;;;20.63;10.63;;;20.40;1.00;;;;;;6029910;23;20082;-85
2023/10/03 08:54:36;;;;;;;17.60;9.95;;;20.60;99.90;;;;;;6134634;23;20013;-86
2023/10/03 08:57:31;;;;;;;14.57;8.70;;;20.80;1.00;;;;;;6173117;23;20021;-85
2023/10/03 09:00:10;;;;;;;15.05;10.52;;;20.80;99.90;;;;;;6185962;23;20028;-85
2023/10/03 09:02:49;;;;;;;14.63;8.95;;;21.00;1.00;;;;;;6211133;23;20052;-84
2023/10/03 09:05:24;;;;;;;17.70;9.30;;;21.00;1.00;;;;;;6211688;23;20047;-85
2023/10/03 09:07:58;;;;;;;17.30;9.88;;;20.90;99.90;;;;;;6175937;23;20032;-84
2023/10/03 09:10:34;;;;;;;16.52;9.30;;;21.00;99.90;;;;;;6205456;23;20113;-85
2023/10/03 09:16:14;;;;;;;14.98;10.93;;;21.10;99.90;;;;;;6211415;23;20027;-85
2023/10/03 09:19:09;;;;;;;20.50;11.18;;;21.20;99.90;;;;;;6172756;23;20068;-86
2023/10/03 09:21:52;;;;;;;17.70;10.93;;;21.20;1.00;;;;;;6187344;23;20365;-85
2023/10/03 09:27:44;;;;;;;18.17;10.93;;;21.50;1.00;;;;;;6181635;23;20077;-84
2023/10/03 09:30:40;;;;;;;27.15;17.70;;;21.60;1.00;;;;;;6229722;23;20020;-85
2023/10/03 09:33:16;;;;;;;14.43;8.93;;;21.70;1.00;;;;;;6221115;23;20100;-85
2023/10/03 09:36:00;;;;;;;13.18;8.52;;;21.90;31.90;;;;;;6190772;23;20483;-84
2023/10/03 09:38:44;;;;;;;14.45;8.45;;;21.90;41.90;;;;;;6186037;23;20028;-85
2023/10/03 09:41:22;;;;;;;18.42;11.30;;;21.90;50.30;;;;;;6220502;23;20093;-85
2023/10/03 09:44:00;;;;;;;17.98;11.65;;;22.10;79.60;;;;;;6189055;23;20016;-86
2023/10/03 09:46:38;;;;;;;13.45;8.82;;;22.30;99.90;;;;;;6185606;23;20020;-85
2023/10/03 09:49:10;;;;;;;14.98;9.98;;;22.40;99.90;;;;;;6187924;23;20112;-87
2023/10/03 09:55:41;;;;;;;11.50;8.15;;;22.40;99.90;;;;;;6210592;23;20040;-87
2023/10/03 10:05:07;;;;;;;11.90;8.27;;;22.70;99.90;;;;;;6136071;23;20013;-87
2023/10/03 10:08:20;;;;;;;15.47;9.03;;;22.90;99.90;;;;;;6159569;23;20032;-88
2023/10/03 10:25:37;;;;;;;10.82;7.30;;;23.30;99.90;;;;;;5924851;24;20021;-89
2023/10/03 10:29:08;;;;;;;12.20;7.40;;;23.50;99.90;;;;;;5951692;24;20024;-89
2023/10/03 10:31:52;;;;;;;12.02;7.25;;;23.40;99.90;;;;;;5953577;24;20157;-85
2023/10/03 10:45:16;;;;;;;11.48;7.13;;;23.60;99.90;;;;;;5984203;22;20341;-76
2023/10/03 10:47:46;;;;;;;13.57;8.13;;;23.80;99.90;;;;;;6176866;23;20025;-76
2023/10/03 10:50:27;;;;;;;14.50;7.93;;;23.70;99.90;;;;;;6174521;23;20575;-78
2023/10/03 10:52:57;;;;;;;11.32;6.15;;;23.70;99.90;;;;;;6237942;23;20028;-78
2023/10/03 10:55:25;;;;;;;9.60;6.13;;;23.80;99.90;;;;;;6197718;23;20444;-77
2023/10/03 10:58:08;;;;;;;10.45;6.22;;;23.80;99.90;;;;;;6222081;23;20054;-76
2023/10/03 11:00:36;;;;;;;10.27;6.90;;;23.90;99.90;;;;;;6211400;23;20465;-75
2023/10/03 11:03:06;;;;;;;14.52;7.95;;;24.00;99.90;;;;;;6214367;23;20025;-76
2023/10/03 11:05:45;;;;;;;64.20;14.65;;;24.10;99.90;;;;;;6210469;23;20032;-76
2023/10/03 11:08:13;;;;;;;11.18;6.32;;;24.10;99.90;;;;;;6217056;23;20382;-77
2023/10/03 11:10:52;;;;;;;11.68;7.13;;;24.10;99.90;;;;;;6219015;23;20521;-76
2023/10/03 11:13:19;;;;;;;10.63;6.90;;;24.10;99.90;;;;;;6184487;23;20125;-74
2023/10/03 11:15:50;;;;;;;12.88;7.97;;;24.20;99.90;;;;;;6221154;23;20386;-76
2023/10/03 11:18:27;;;;;;;9.65;7.28;;;24.30;99.90;;;;;;6211426;23;20107;-79
2023/10/03 11:20:55;;;;;;;10.65;6.88;;;24.40;99.90;;;;;;6183392;23;20102;-75
2023/10/03 11:23:23;;;;;;;9.27;6.85;;;24.50;99.90;;;;;;6214259;23;20023;-76
2023/10/03 11:25:54;;;;;;;9.93;6.95;;;24.50;99.90;;;;;;6217715;23;20101;-77
2023/10/03 11:28:22;;;;;;;14.68;7.28;;;24.70;99.90;;;;;;6218002;23;20147;-77
2023/10/03 11:31:04;;;;;;;8.98;4.95;;;24.60;99.90;;;;;;6219677;23;20020;-78
2023/10/03 11:33:43;;;;;;;9.13;4.78;;;24.70;99.90;;;;;;6210600;23;20028;-75
2023/10/03 11:36:10;;;;;;;8.52;5.22;;;24.80;99.90;;;;;;6213107;23;20396;-74
2023/10/03 11:38:45;;;;;;;10.32;5.63;;;24.90;99.90;;;;;;6212552;23;20036;-76
2023/10/03 11:41:13;;;;;;;9.13;6.40;;;25.00;99.90;;;;;;6215191;23;20398;-76
2023/10/03 11:43:46;;;;;;;6.43;4.72;;;25.00;99.90;;;;;;6218331;23;20035;-75
2023/10/03 11:46:16;;;;;;;9.20;4.60;;;25.00;99.90;;;;;;6251766;23;20066;-77
2023/10/03 11:48:45;;;;;;;9.48;4.75;;;25.00;99.90;;;;;;6213383;23;20441;-77
2023/10/03 11:51:13;;;;;;;6.85;4.60;;;25.10;99.90;;;;;;6212213;23;20344;-76
2023/10/03 11:53:40;;;;;;;9.15;4.97;;;25.10;99.90;;;;;;6244590;23;20030;-77
2023/10/03 11:56:09;;;;;;;7.57;4.68;;;25.20;99.90;;;;;;6213311;23;20079;-77
2023/10/03 11:58:40;;;;;;;9.25;5.13;;;25.20;99.90;;;;;;6249495;23;20103;-77
2023/10/03 12:01:19;;;;;;;6.25;4.07;;;25.20;99.90;;;;;;6251179;22;20099;-82
2023/10/03 12:11:20;;;;;;;45.75;33.67;;;25.50;99.90;;;;;;6060473;23;20109;-83
2023/10/03 12:17:54;;;;;;;152.27;130.02;;;25.50;99.90;;;;;;6120996;23;20022;-77
2023/10/03 12:20:27;;;;;;;25.50;20.83;;;25.70;99.90;;;;;;6126218;23;20026;-75
2023/10/03 12:22:54;;;;;;;32.47;25.10;;;25.70;99.90;;;;;;6092951;23;20026;-75
2023/10/03 12:25:26;;;;;;;25.27;19.17;;;25.70;99.90;;;;;;6128104;23;20022;-76
2023/10/03 12:27:57;;;;;;;11.32;6.78;;;25.60;99.90;;;;;;6094163;23;20042;-77
2023/10/03 12:30:25;;;;;;;6.60;5.05;;;25.70;99.90;;;;;;6118643;23;20034;-75
2023/10/03 12:32:53;;;;;;;14.30;10.50;;;25.70;99.90;;;;;;6118457;23;20082;-76
2023/10/03 12:35:22;;;;;;;10.20;5.07;;;25.70;99.90;;;;;;6094597;23;20022;-76
2023/10/03 12:37:51;;;;;;;7.20;4.72;;;25.80;99.90;;;;;;6126730;23;20343;-77
2023/10/03 12:40:22;;;;;;;7.13;4.50;;;25.90;99.90;;;;;;6117661;23;20562;-78
2023/10/03 12:42:51;;;;;;;5.72;3.88;;;26.00;99.90;;;;;;6119011;23;20354;-77
2023/10/03 12:45:20;;;;;;;11.25;4.10;;;26.00;99.90;;;;;;6196539;23;20352;-75
2023/10/03 12:47:48;;;;;;;7.18;4.25;;;26.20;99.90;;;;;;6215018;23;20034;-78
2023/10/03 12:50:19;;;;;;;7.40;4.13;;;26.20;99.90;;;;;;6223226;23;20031;-77
2023/10/03 12:52:49;;;;;;;7.53;4.20;;;26.10;99.90;;;;;;6248274;23;20190;-78
2023/10/03 12:55:17;;;;;;;7.03;4.30;;;26.00;99.90;;;;;;6216784;23;20461;-78
2023/10/03 12:57:59;;;;;;;9.90;4.50;;;26.00;99.90;;;;;;6214474;23;20024;-76
2023/10/03 13:00:36;;;;;;;7.88;4.00;;;25.90;99.90;;;;;;6202956;23;20027;-76
2023/10/03 13:03:04;;;;;;;8.38;3.90;;;25.90;99.90;;;;;;6243463;23;20048;-77
2023/10/03 13:05:34;;;;;;;5.47;3.42;;;25.90;99.90;;;;;;6259550;23;20095;-77
2023/10/03 13:08:04;;;;;;;6.50;3.72;;;25.90;99.90;;;;;;6228203;23;20031;-76
2023/10/03 13:10:34;;;;;;;5.32;3.58;;;25.90;99.90;;;;;;6255298;22;20021;-76
2023/10/03 13:13:04;;;;;;;7.03;3.38;;;25.90;99.90;;;;;;6229952;23;20042;-77
2023/10/03 13:15:32;;;;;;;5.75;3.50;;;26.00;99.90;;;;;;6200096;23;20336;-77
2023/10/03 13:18:00;;;;;;;5.13;3.17;;;26.10;99.90;;;;;;6215648;23;20476;-76
2023/10/03 13:20:29;;;;;;;5.70;3.40;;;26.10;99.90;;;;;;6213237;23;20020;-76
2023/10/03 13:22:57;;;;;;;8.18;3.75;;;26.20;99.90;;;;;;6249344;23;20059;-76
2023/10/03 13:25:26;;;;;;;6.82;3.95;;;26.20;99.90;;;;;;6209053;23;20103;-77
2023/10/03 13:27:54;;;;;;;13.50;6.25;;;26.20;99.90;;;;;;6257134;23;20027;-75
2023/10/03 13:30:26;;;;;;;7.35;4.30;;;26.20;99.90;;;;;;6216350;23;20054;-77
2023/10/03 13:32:55;;;;;;;5.78;3.58;;;26.10;99.90;;;;;;6247479;23;20043;-77
2023/10/03 13:35:23;;;;;;;4.93;3.40;;;26.20;99.90;;;;;;6218481;23;20070;-76
2023/10/03 13:37:52;;;;;;;6.00;3.60;;;26.20;99.90;;;;;;6216914;23;20051;-78
2023/10/03 13:40:21;;;;;;;5.40;2.88;;;26.30;99.90;;;;;;6253038;22;20020;-76
2023/10/03 13:42:51;;;;;;;4.53;2.75;;;26.30;99.90;;;;;;6252199;23;20008;-76
2023/10/03 13:45:19;;;;;;;4.45;2.78;;;26.20;99.90;;;;;;6245392;23;20024;-77
2023/10/03 13:47:48;;;;;;;4.60;2.80;;;26.10;99.90;;;;;;6217154;23;20024;-78
2023/10/03 13:50:17;;;;;;;4.25;2.70;;;26.10;99.90;;;;;;6215511;23;20027;-77
2023/10/03 13:52:46;;;;;;;4.43;3.13;;;26.20;99.90;;;;;;6252954;23;20039;-77
2023/10/03 13:55:14;;;;;;;5.90;3.58;;;26.20;99.90;;;;;;6255101;23;20024;-76
2023/10/03 13:57:44;;;;;;;7.28;5.28;;;26.30;99.90;;;;;;6218515;23;20020;-76
2023/10/03 14:00:15;;;;;;;9.55;4.05;;;26.40;99.90;;;;;;6218106;23;20409;-76
2023/10/03 14:02:45;;;;;;;5.25;3.90;;;26.30;99.90;;;;;;6221775;23;20039;-77
2023/10/03 14:05:13;;;;;;;5.50;3.17;;;26.30;99.90;;;;;;6232047;23;20035;-75
2023/10/03 14:07:40;;;;;;;5.53;3.88;;;26.30;99.90;;;;;;6256116;23;20024;-79
2023/10/03 14:10:13;;;;;;;5.20;3.47;;;26.30;99.90;;;;;;6230671;23;20020;-76
2023/10/03 14:12:40;;;;;;;5.22;3.63;;;26.30;99.90;;;;;;6261397;23;20020;-76
2023/10/03 14:15:13;;;;;;;6.43;3.75;;;26.40;99.90;;;;;;6263008;23;20020;-76
2023/10/03 14:17:41;;;;;;;6.78;3.67;;;26.40;99.90;;;;;;6266937;23;20502;-76
2023/10/03 14:20:10;;;;;;;6.82;3.60;;;26.40;99.90;;;;;;6251511;22;20020;-76
2023/10/03 14:22:40;;;;;;;4.60;3.42;;;26.40;99.90;;;;;;6217593;23;20016;-76
2023/10/03 14:25:11;;;;;;;8.43;3.60;;;26.30;99.90;;;;;;6229043;23;20046;-74
2023/10/03 14:27:40;;;;;;;8.15;4.97;;;26.20;99.90;;;;;;6222767;23;20062;-76
2023/10/03 14:30:09;;;;;;;7.93;4.40;;;26.10;99.90;;;;;;6254533;22;20022;-76
2023/10/03 14:32:40;;;;;;;8.68;4.70;;;26.10;99.90;;;;;;6248729;23;20024;-76
2023/10/03 14:35:08;;;;;;;8.40;4.20;;;26.10;99.90;;;;;;6249927;23;20016;-76
2023/10/03 14:37:36;;;;;;;8.00;5.63;;;26.10;99.90;;;;;;6250345;23;20079;-75
2023/10/03 14:40:09;;;;;;;7.78;5.55;;;26.10;99.90;;;;;;6216615;23;20020;-76
2023/10/03 14:42:36;;;;;;;11.90;6.85;;;26.10;99.90;;;;;;6214832;23;20031;-76
2023/10/03 14:45:05;;;;;;;10.02;6.85;;;26.10;99.90;;;;;;6217416;23;20035;-75
2023/10/03 14:47:33;;;;;;;9.32;5.60;;;26.00;99.90;;;;;;6255994;23;20347;-76
2023/10/03 14:50:02;;;;;;;9.05;6.70;;;26.00;99.90;;;;;;6264456;22;20032;-75
2023/10/03 14:52:32;;;;;;;10.48;5.93;;;26.00;99.90;;;;;;6218093;23;20028;-77
2023/10/03 14:55:00;;;;;;;9.98;5.18;;;25.90;99.90;;;;;;6259082;23;20039;-78
2023/10/03 14:57:27;;;;;;;7.32;5.00;;;25.90;99.90;;;;;;6236042;23;20099;-78
2023/10/03 14:59:55;;;;;;;10.43;5.55;;;25.90;99.90;;;;;;6214045;23;20028;-77
2023/10/03 15:02:23;;;;;;;9.55;5.60;;;25.90;99.90;;;;;;6246738;23;20032;-78
2023/10/03 15:04:51;;;;;;;7.03;4.70;;;25.90;99.90;;;;;;6248154;23;20402;-75
2023/10/03 15:07:20;;;;;;;7.13;4.85;;;25.80;99.90;;;;;;6215021;23;20016;-77
2023/10/03 15:09:47;;;;;;;10.43;4.82;;;25.80;99.90;;;;;;6215501;23;20020;-77
2023/10/03 15:12:15;;;;;;;7.25;4.85;;;25.70;99.90;;;;;;6212224;23;20055;-78
2023/10/03 15:14:44;;;;;;;7.07;4.38;;;25.70;99.90;;;;;;6213879;23;20527;-76
2023/10/03 15:17:11;;;;;;;7.53;4.68;;;25.70;99.90;;;;;;6247460;23;20035;-76
2023/10/03 15:19:39;;;;;;;11.90;6.15;;;25.60;99.90;;;;;;6249259;22;20448;-77
2023/10/03 15:22:11;;;;;;;6.97;4.72;;;25.60;99.90;;;;;;6215562;23;20527;-76
2023/10/03 15:24:40;;;;;;;12.60;6.85;;;25.50;99.90;;;;;;6240204;23;20480;-76
2023/10/03 15:27:09;;;;;;;11.48;6.57;;;25.40;99.90;;;;;;6214507;23;20107;-78
2023/10/03 15:29:37;;;;;;;10.77;6.90;;;25.20;99.90;;;;;;6214581;23;20448;-75
2023/10/03 15:32:04;;;;;;;11.65;5.35;;;25.00;99.90;;;;;;6214660;23;20134;-78
2023/10/03 15:34:36;;;;;;;9.13;5.05;;;24.90;99.90;;;;;;6250905;23;20068;-75
2023/10/03 15:37:08;;;;;;;8.80;5.85;;;24.70;99.90;;;;;;6253334;23;20032;-77
2023/10/03 15:39:36;;;;;;;11.18;6.38;;;24.50;99.90;;;;;;6239727;22;20095;-74
2023/10/03 15:42:06;;;;;;;12.55;6.15;;;24.40;99.90;;;;;;6242593;23;20380;-76
2023/10/03 15:44:33;;;;;;;10.95;7.90;;;24.30;99.90;;;;;;6244282;23;20024;-77
2023/10/03 15:47:01;;;;;;;11.93;7.13;;;24.10;99.90;;;;;;6213594;23;20023;-77
2023/10/03 15:49:29;;;;;;;12.27;7.97;;;23.90;99.90;;;;;;6211885;23;20016;-76
2023/10/03 15:51:57;;;;;;;15.75;9.18;;;23.70;99.90;;;;;;6251145;23;20012;-77
2023/10/03 15:54:24;;;;;;;14.10;8.18;;;23.50;99.90;;;;;;6199542;23;20017;-76
2023/10/03 15:56:52;;;;;;;14.48;8.80;;;23.30;99.90;;;;;;6244476;23;20091;-77
2023/10/03 15:59:21;;;;;;;13.00;8.45;;;23.10;99.90;;;;;;6245765;22;20090;-77
2023/10/03 16:01:49;;;;;;;23.50;14.20;;;22.90;99.90;;;;;;6212950;23;20521;-76
2023/10/03 16:04:20;;;;;;;16.25;10.05;;;22.80;99.90;;;;;;6251697;23;20483;-77
2023/10/03 16:06:48;;;;;;;16.15;9.45;;;22.50;99.90;;;;;;6252584;23;20016;-76
2023/10/03 16:09:19;;;;;;;21.30;13.73;;;22.40;99.90;;;;;;6240742;22;20452;-73
2023/10/03 16:11:53;;;;;;;15.70;11.05;;;22.30;99.90;;;;;;6244685;23;20082;-75
2023/10/03 16:14:22;;;;;;;23.40;14.43;;;22.10;99.90;;;;;;6246221;23;20083;-76
2023/10/03 16:17:01;;;;;;;15.95;9.48;;;22.00;99.90;;;;;;6249218;23;20024;-77
2023/10/03 16:19:35;;;;;;;16.23;9.30;;;21.80;99.90;;;;;;6232854;22;20016;-78
2023/10/03 16:22:06;;;;;;;18.88;10.93;;;21.80;99.90;;;;;;6214190;23;20332;-79
2023/10/03 16:24:38;;;;;;;17.33;11.98;;;21.60;99.90;;;;;;6240428;23;20020;-77
2023/10/03 16:27:05;;;;;;;15.43;10.25;;;21.40;99.90;;;;;;6242676;23;20471;-76
2023/10/03 16:29:34;;;;;;;16.60;10.02;;;21.20;99.90;;;;;;6228689;22;20028;-75
2023/10/03 16:32:12;;;;;;;18.35;12.00;;;21.20;99.90;;;;;;6212911;23;20076;-79
2023/10/03 16:34:40;;;;;;;26.08;18.48;;;21.20;99.90;;;;;;6249087;23;20020;-75
2023/10/03 16:37:07;;;;;;;21.00;14.15;;;21.00;99.90;;;;;;6249727;23;20012;-74
2023/10/03 16:39:35;;;;;;;26.23;18.40;;;20.90;99.90;;;;;;6248865;22;20040;-77
2023/10/03 16:42:03;;;;;;;20.40;14.95;;;20.90;99.90;;;;;;6248900;23;20028;-76
2023/10/03 16:44:31;;;;;;;28.17;19.80;;;20.80;99.90;;;;;;6255334;22;20005;-75
2023/10/03 16:47:00;;;;;;;18.80;12.43;;;20.60;99.90;;;;;;6185379;23;20017;-76
2023/10/03 16:49:28;;;;;;;23.95;16.50;;;20.60;99.90;;;;;;6240673;23;20023;-75
2023/10/03 16:51:55;;;;;;;23.40;17.95;;;20.50;99.90;;;;;;6217276;23;20016;-77
2023/10/03 16:54:25;;;;;;;35.58;21.35;;;20.50;99.90;;;;;;6246380;23;20024;-76
2023/10/03 16:56:53;;;;;;;38.90;25.48;;;20.50;99.90;;;;;;6250107;23;20582;-77
2023/10/03 16:59:20;;;;;;;43.22;30.85;;;20.50;99.90;;;;;;6251259;23;20024;-76
2023/10/03 17:01:48;;;;;;;50.20;36.13;;;20.30;99.90;;;;;;6252515;23;20024;-78
2023/10/03 17:04:17;;;;;;;39.95;31.10;;;20.30;99.90;;;;;;6255560;23;20083;-76
2023/10/03 17:06:47;;;;;;;41.90;29.55;;;20.20;99.90;;;;;;6246211;23;20020;-76